sensor_id;sensor_type;location;lat;lon;timestamp;P1;durP1;ratioP1;P2;durP2;ratioP2
29958;SDS011;16815;51.100;6.516;2023-04-09T00:00:38;31.03;;;25.03;;
29958;SDS011;16815;51.100;6.516;2023-04-09T00:03:04;29.70;;;25.63;;
29958;SDS011;16815;51.100;6.516;2023-04-09T00:05:30;33.60;;;27.00;;
29958;SDS011;16815;51.100;6.516;2023-04-09T00:07:56;34.33;;;26.97;;
29958;SDS011;16815;51.100;6.516;2023-04-09T00:10:22;32.53;;;27.27;;
29958;SDS011;16815;51.100;6.516;2023-04-09T00:12:48;33.90;;;25.07;;
29958;SDS011;16815;51.100;6.516;2023-04-09T00:15:14;33.20;;;26.47;;
29958;SDS011;16815;51.100;6.516;2023-04-09T00:17:40;30.87;;;25.00;;
29958;SDS011;16815;51.100;6.516;2023-04-09T00:20:06;28.37;;;23.07;;
29958;SDS011;16815;51.100;6.516;2023-04-09T00:22:32;29.40;;;23.87;;
29958;SDS011;16815;51.100;6.516;2023-04-09T00:24:58;31.33;;;24.87;;
29958;SDS011;16815;51.100;6.516;2023-04-09T00:27:24;33.50;;;26.50;;
29958;SDS011;16815;51.100;6.516;2023-04-09T00:29:52;30.93;;;25.23;;
29958;SDS011;16815;51.100;6.516;2023-04-09T00:32:19;34.33;;;26.83;;
29958;SDS011;16815;51.100;6.516;2023-04-09T00:34:45;32.90;;;25.77;;
29958;SDS011;16815;51.100;6.516;2023-04-09T00:37:11;32.77;;;25.67;;
29958;SDS011;16815;51.100;6.516;2023-04-09T00:39:37;32.20;;;25.60;;
29958;SDS011;16815;51.100;6.516;2023-04-09T00:42:03;27.97;;;24.03;;
29958;SDS011;16815;51.100;6.516;2023-04-09T00:44:29;31.93;;;26.20;;
29958;SDS011;16815;51.100;6.516;2023-04-09T00:46:55;33.37;;;25.57;;
29958;SDS011;16815;51.100;6.516;2023-04-09T00:49:24;33.10;;;25.33;;
29958;SDS011;16815;51.100;6.516;2023-04-09T00:51:50;32.00;;;26.10;;
29958;SDS011;16815;51.100;6.516;2023-04-09T00:54:16;35.03;;;27.40;;
29958;SDS011;16815;51.100;6.516;2023-04-09T00:56:42;32.83;;;25.50;;
29958;SDS011;16815;51.100;6.516;2023-04-09T00:59:08;35.57;;;26.03;;
29958;SDS011;16815;51.100;6.516;2023-04-09T01:01:34;30.53;;;24.30;;
29958;SDS011;16815;51.100;6.516;2023-04-09T01:04:00;35.20;;;26.80;;
29958;SDS011;16815;51.100;6.516;2023-04-09T01:06:37;30.70;;;23.30;;
29958;SDS011;16815;51.100;6.516;2023-04-09T01:11:31;30.40;;;24.57;;
29958;SDS011;16815;51.100;6.516;2023-04-09T01:14:04;34.57;;;26.63;;
29958;SDS011;16815;51.100;6.516;2023-04-09T01:16:31;33.50;;;26.20;;
29958;SDS011;16815;51.100;6.516;2023-04-09T01:19:00;36.20;;;27.57;;
29958;SDS011;16815;51.100;6.516;2023-04-09T01:21:29;31.97;;;26.13;;
29958;SDS011;16815;51.100;6.516;2023-04-09T01:24:08;32.10;;;25.83;;
29958;SDS011;16815;51.100;6.516;2023-04-09T01:29:03;31.90;;;25.70;;
29958;SDS011;16815;51.100;6.516;2023-04-09T01:31:34;35.33;;;26.93;;
29958;SDS011;16815;51.100;6.516;2023-04-09T01:34:01;31.87;;;25.83;;
29958;SDS011;16815;51.100;6.516;2023-04-09T01:36:28;35.60;;;25.97;;
29958;SDS011;16815;51.100;6.516;2023-04-09T01:38:56;31.60;;;26.20;;
29958;SDS011;16815;51.100;6.516;2023-04-09T01:41:22;28.80;;;23.77;;
29958;SDS011;16815;51.100;6.516;2023-04-09T01:43:50;34.63;;;25.47;;
29958;SDS011;16815;51.100;6.516;2023-04-09T01:46:17;31.63;;;25.47;;
29958;SDS011;16815;51.100;6.516;2023-04-09T01:48:43;33.10;;;24.33;;
29958;SDS011;16815;51.100;6.516;2023-04-09T01:51:10;32.63;;;26.63;;
29958;SDS011;16815;51.100;6.516;2023-04-09T01:53:38;31.87;;;25.13;;
29958;SDS011;16815;51.100;6.516;2023-04-09T01:56:04;30.97;;;25.43;;
29958;SDS011;16815;51.100;6.516;2023-04-09T01:58:31;34.70;;;27.37;;
29958;SDS011;16815;51.100;6.516;2023-04-09T02:01:21;32.63;;;25.17;;
29958;SDS011;16815;51.100;6.516;2023-04-09T02:03:45;32.60;;;25.40;;
29958;SDS011;16815;51.100;6.516;2023-04-09T02:06:12;30.80;;;24.70;;
29958;SDS011;16815;51.100;6.516;2023-04-09T02:08:45;29.87;;;24.27;;
29958;SDS011;16815;51.100;6.516;2023-04-09T02:11:11;34.83;;;27.13;;
29958;SDS011;16815;51.100;6.516;2023-04-09T02:13:38;32.37;;;25.07;;
29958;SDS011;16815;51.100;6.516;2023-04-09T02:16:05;31.47;;;24.23;;
29958;SDS011;16815;51.100;6.516;2023-04-09T02:18:31;32.07;;;24.70;;
29958;SDS011;16815;51.100;6.516;2023-04-09T02:20:57;32.93;;;25.20;;
29958;SDS011;16815;51.100;6.516;2023-04-09T02:23:24;31.00;;;24.23;;
29958;SDS011;16815;51.100;6.516;2023-04-09T02:25:51;33.70;;;24.33;;
29958;SDS011;16815;51.100;6.516;2023-04-09T02:28:17;31.90;;;24.43;;
29958;SDS011;16815;51.100;6.516;2023-04-09T02:30:43;32.70;;;24.93;;
29958;SDS011;16815;51.100;6.516;2023-04-09T02:33:09;31.77;;;24.47;;
29958;SDS011;16815;51.100;6.516;2023-04-09T02:35:35;33.07;;;24.67;;
29958;SDS011;16815;51.100;6.516;2023-04-09T02:38:02;30.43;;;24.87;;
29958;SDS011;16815;51.100;6.516;2023-04-09T02:40:28;29.53;;;24.17;;
29958;SDS011;16815;51.100;6.516;2023-04-09T02:42:54;31.83;;;22.57;;
29958;SDS011;16815;51.100;6.516;2023-04-09T02:45:20;31.30;;;24.33;;
29958;SDS011;16815;51.100;6.516;2023-04-09T02:47:46;29.40;;;24.10;;
29958;SDS011;16815;51.100;6.516;2023-04-09T02:50:11;29.60;;;23.40;;
29958;SDS011;16815;51.100;6.516;2023-04-09T02:52:37;31.83;;;24.50;;
29958;SDS011;16815;51.100;6.516;2023-04-09T02:55:03;31.97;;;24.57;;
29958;SDS011;16815;51.100;6.516;2023-04-09T02:57:30;29.73;;;23.50;;
29958;SDS011;16815;51.100;6.516;2023-04-09T02:59:57;30.50;;;24.13;;
29958;SDS011;16815;51.100;6.516;2023-04-09T03:02:23;32.93;;;25.40;;
29958;SDS011;16815;51.100;6.516;2023-04-09T03:04:49;31.57;;;24.67;;
29958;SDS011;16815;51.100;6.516;2023-04-09T03:07:16;32.07;;;23.40;;
29958;SDS011;16815;51.100;6.516;2023-04-09T03:09:42;32.80;;;24.03;;
29958;SDS011;16815;51.100;6.516;2023-04-09T03:12:08;30.07;;;22.80;;
29958;SDS011;16815;51.100;6.516;2023-04-09T03:14:34;31.30;;;23.43;;
29958;SDS011;16815;51.100;6.516;2023-04-09T03:17:00;31.33;;;24.17;;
29958;SDS011;16815;51.100;6.516;2023-04-09T03:19:26;30.27;;;23.33;;
29958;SDS011;16815;51.100;6.516;2023-04-09T03:21:52;29.30;;;22.90;;
29958;SDS011;16815;51.100;6.516;2023-04-09T03:24:18;33.30;;;23.17;;
29958;SDS011;16815;51.100;6.516;2023-04-09T03:26:44;32.27;;;23.33;;
29958;SDS011;16815;51.100;6.516;2023-04-09T03:29:10;30.33;;;23.33;;
29958;SDS011;16815;51.100;6.516;2023-04-09T03:31:36;31.70;;;24.67;;
29958;SDS011;16815;51.100;6.516;2023-04-09T03:34:02;32.87;;;24.53;;
29958;SDS011;16815;51.100;6.516;2023-04-09T03:36:28;32.33;;;24.43;;
29958;SDS011;16815;51.100;6.516;2023-04-09T03:38:55;32.23;;;25.50;;
29958;SDS011;16815;51.100;6.516;2023-04-09T03:41:21;35.77;;;27.13;;
29958;SDS011;16815;51.100;6.516;2023-04-09T03:43:47;31.73;;;25.87;;
29958;SDS011;16815;51.100;6.516;2023-04-09T03:46:13;36.93;;;27.60;;
29958;SDS011;16815;51.100;6.516;2023-04-09T03:48:39;39.17;;;28.67;;
29958;SDS011;16815;51.100;6.516;2023-04-09T03:51:06;37.23;;;28.50;;
29958;SDS011;16815;51.100;6.516;2023-04-09T03:53:32;37.63;;;27.00;;
29958;SDS011;16815;51.100;6.516;2023-04-09T03:55:58;35.90;;;27.07;;
29958;SDS011;16815;51.100;6.516;2023-04-09T03:58:25;35.20;;;25.50;;
29958;SDS011;16815;51.100;6.516;2023-04-09T04:00:51;35.03;;;26.27;;
29958;SDS011;16815;51.100;6.516;2023-04-09T04:03:17;35.23;;;26.50;;
29958;SDS011;16815;51.100;6.516;2023-04-09T04:05:43;34.27;;;26.97;;
29958;SDS011;16815;51.100;6.516;2023-04-09T04:08:09;32.03;;;24.33;;
29958;SDS011;16815;51.100;6.516;2023-04-09T04:10:35;31.83;;;25.40;;
29958;SDS011;16815;51.100;6.516;2023-04-09T04:13:01;33.43;;;25.10;;
29958;SDS011;16815;51.100;6.516;2023-04-09T04:15:27;30.23;;;25.33;;
29958;SDS011;16815;51.100;6.516;2023-04-09T04:17:53;37.77;;;27.10;;
29958;SDS011;16815;51.100;6.516;2023-04-09T04:20:19;35.63;;;26.60;;
29958;SDS011;16815;51.100;6.516;2023-04-09T04:22:45;31.67;;;23.80;;
29958;SDS011;16815;51.100;6.516;2023-04-09T04:25:11;33.67;;;25.47;;
29958;SDS011;16815;51.100;6.516;2023-04-09T04:27:40;31.37;;;25.53;;
29958;SDS011;16815;51.100;6.516;2023-04-09T04:30:06;32.37;;;25.20;;
29958;SDS011;16815;51.100;6.516;2023-04-09T04:32:32;29.97;;;24.23;;
29958;SDS011;16815;51.100;6.516;2023-04-09T04:34:58;31.80;;;24.90;;
29958;SDS011;16815;51.100;6.516;2023-04-09T04:37:24;32.17;;;23.93;;
29958;SDS011;16815;51.100;6.516;2023-04-09T04:39:50;28.07;;;22.73;;
29958;SDS011;16815;51.100;6.516;2023-04-09T04:42:16;30.93;;;24.20;;
29958;SDS011;16815;51.100;6.516;2023-04-09T04:44:43;29.77;;;24.03;;
29958;SDS011;16815;51.100;6.516;2023-04-09T04:47:09;30.80;;;24.17;;
29958;SDS011;16815;51.100;6.516;2023-04-09T04:49:35;29.67;;;24.70;;
29958;SDS011;16815;51.100;6.516;2023-04-09T04:52:01;30.10;;;24.10;;
29958;SDS011;16815;51.100;6.516;2023-04-09T04:54:27;31.07;;;24.30;;
29958;SDS011;16815;51.100;6.516;2023-04-09T04:56:53;31.33;;;23.87;;
29958;SDS011;16815;51.100;6.516;2023-04-09T04:59:18;33.70;;;24.47;;
29958;SDS011;16815;51.100;6.516;2023-04-09T05:01:45;32.03;;;25.33;;
29958;SDS011;16815;51.100;6.516;2023-04-09T05:04:11;29.53;;;23.53;;
29958;SDS011;16815;51.100;6.516;2023-04-09T05:06:37;28.43;;;23.10;;
29958;SDS011;16815;51.100;6.516;2023-04-09T05:09:03;29.00;;;23.23;;
29958;SDS011;16815;51.100;6.516;2023-04-09T05:11:29;29.93;;;22.97;;
29958;SDS011;16815;51.100;6.516;2023-04-09T05:13:55;28.20;;;22.83;;
29958;SDS011;16815;51.100;6.516;2023-04-09T05:16:21;27.60;;;22.20;;
29958;SDS011;16815;51.100;6.516;2023-04-09T05:18:47;28.70;;;23.00;;
29958;SDS011;16815;51.100;6.516;2023-04-09T05:21:13;28.83;;;22.17;;
29958;SDS011;16815;51.100;6.516;2023-04-09T05:23:39;30.93;;;24.90;;
29958;SDS011;16815;51.100;6.516;2023-04-09T05:26:05;28.57;;;22.47;;
29958;SDS011;16815;51.100;6.516;2023-04-09T05:28:32;31.37;;;24.73;;
29958;SDS011;16815;51.100;6.516;2023-04-09T05:30:58;29.27;;;22.83;;
29958;SDS011;16815;51.100;6.516;2023-04-09T05:33:24;30.17;;;24.03;;
29958;SDS011;16815;51.100;6.516;2023-04-09T05:35:50;29.43;;;22.60;;
29958;SDS011;16815;51.100;6.516;2023-04-09T05:38:16;30.27;;;23.77;;
29958;SDS011;16815;51.100;6.516;2023-04-09T05:40:42;29.50;;;23.50;;
29958;SDS011;16815;51.100;6.516;2023-04-09T05:43:09;27.10;;;22.37;;
29958;SDS011;16815;51.100;6.516;2023-04-09T05:45:35;29.60;;;23.77;;
29958;SDS011;16815;51.100;6.516;2023-04-09T05:48:01;27.90;;;23.00;;
29958;SDS011;16815;51.100;6.516;2023-04-09T05:50:27;30.90;;;23.43;;
29958;SDS011;16815;51.100;6.516;2023-04-09T05:52:53;29.63;;;24.30;;
29958;SDS011;16815;51.100;6.516;2023-04-09T05:55:19;27.60;;;22.43;;
29958;SDS011;16815;51.100;6.516;2023-04-09T05:57:45;22.97;;;20.27;;
29958;SDS011;16815;51.100;6.516;2023-04-09T06:00:11;21.73;;;18.40;;
29958;SDS011;16815;51.100;6.516;2023-04-09T06:02:37;21.57;;;18.00;;
29958;SDS011;16815;51.100;6.516;2023-04-09T06:05:03;23.93;;;18.63;;
29958;SDS011;16815;51.100;6.516;2023-04-09T06:07:29;19.40;;;17.30;;
29958;SDS011;16815;51.100;6.516;2023-04-09T06:09:55;17.97;;;16.07;;
29958;SDS011;16815;51.100;6.516;2023-04-09T06:12:21;20.43;;;16.60;;
29958;SDS011;16815;51.100;6.516;2023-04-09T06:14:47;19.80;;;16.53;;
29958;SDS011;16815;51.100;6.516;2023-04-09T06:17:13;19.53;;;16.97;;
29958;SDS011;16815;51.100;6.516;2023-04-09T06:19:39;20.57;;;16.93;;
29958;SDS011;16815;51.100;6.516;2023-04-09T06:22:08;17.83;;;15.87;;
29958;SDS011;16815;51.100;6.516;2023-04-09T06:24:34;22.40;;;16.83;;
29958;SDS011;16815;51.100;6.516;2023-04-09T06:27:00;19.77;;;16.40;;
29958;SDS011;16815;51.100;6.516;2023-04-09T06:29:26;19.73;;;16.20;;
29958;SDS011;16815;51.100;6.516;2023-04-09T06:31:52;20.03;;;17.23;;
29958;SDS011;16815;51.100;6.516;2023-04-09T06:34:18;19.00;;;16.53;;
29958;SDS011;16815;51.100;6.516;2023-04-09T06:36:44;19.77;;;15.73;;
29958;SDS011;16815;51.100;6.516;2023-04-09T06:39:11;18.60;;;14.90;;
29958;SDS011;16815;51.100;6.516;2023-04-09T06:41:37;18.43;;;16.20;;
29958;SDS011;16815;51.100;6.516;2023-04-09T06:44:02;17.17;;;15.20;;
29958;SDS011;16815;51.100;6.516;2023-04-09T06:46:28;18.43;;;15.90;;
29958;SDS011;16815;51.100;6.516;2023-04-09T06:48:54;18.37;;;15.37;;
29958;SDS011;16815;51.100;6.516;2023-04-09T06:51:20;18.10;;;15.43;;
29958;SDS011;16815;51.100;6.516;2023-04-09T06:53:46;19.20;;;15.97;;
29958;SDS011;16815;51.100;6.516;2023-04-09T06:56:13;18.53;;;14.70;;
29958;SDS011;16815;51.100;6.516;2023-04-09T06:58:39;20.30;;;14.63;;
29958;SDS011;16815;51.100;6.516;2023-04-09T07:01:05;18.83;;;14.90;;
29958;SDS011;16815;51.100;6.516;2023-04-09T07:03:31;17.23;;;14.23;;
29958;SDS011;16815;51.100;6.516;2023-04-09T07:05:57;16.47;;;13.27;;
29958;SDS011;16815;51.100;6.516;2023-04-09T07:08:23;16.73;;;13.80;;
29958;SDS011;16815;51.100;6.516;2023-04-09T07:10:49;17.43;;;13.57;;
29958;SDS011;16815;51.100;6.516;2023-04-09T07:13:15;17.83;;;12.30;;
29958;SDS011;16815;51.100;6.516;2023-04-09T07:15:41;14.57;;;12.47;;
29958;SDS011;16815;51.100;6.516;2023-04-09T07:18:07;15.67;;;13.10;;
29958;SDS011;16815;51.100;6.516;2023-04-09T07:20:33;16.63;;;13.23;;
29958;SDS011;16815;51.100;6.516;2023-04-09T07:22:59;15.00;;;12.90;;
29958;SDS011;16815;51.100;6.516;2023-04-09T07:25:25;16.17;;;13.30;;
29958;SDS011;16815;51.100;6.516;2023-04-09T07:27:52;13.43;;;11.63;;
29958;SDS011;16815;51.100;6.516;2023-04-09T07:30:18;16.13;;;12.00;;
29958;SDS011;16815;51.100;6.516;2023-04-09T07:32:44;15.80;;;12.13;;
29958;SDS011;16815;51.100;6.516;2023-04-09T07:35:10;14.70;;;13.03;;
29958;SDS011;16815;51.100;6.516;2023-04-09T07:37:36;15.63;;;12.23;;
29958;SDS011;16815;51.100;6.516;2023-04-09T07:40:02;13.73;;;11.70;;
29958;SDS011;16815;51.100;6.516;2023-04-09T07:42:28;15.50;;;11.83;;
29958;SDS011;16815;51.100;6.516;2023-04-09T07:44:54;15.23;;;12.40;;
29958;SDS011;16815;51.100;6.516;2023-04-09T07:47:21;13.93;;;11.27;;
29958;SDS011;16815;51.100;6.516;2023-04-09T07:49:47;15.03;;;11.07;;
29958;SDS011;16815;51.100;6.516;2023-04-09T07:52:13;16.60;;;11.70;;
29958;SDS011;16815;51.100;6.516;2023-04-09T07:54:39;15.73;;;11.87;;
29958;SDS011;16815;51.100;6.516;2023-04-09T07:57:05;15.73;;;12.17;;
29958;SDS011;16815;51.100;6.516;2023-04-09T07:59:31;15.97;;;12.80;;
29958;SDS011;16815;51.100;6.516;2023-04-09T08:01:57;15.90;;;12.70;;
29958;SDS011;16815;51.100;6.516;2023-04-09T08:04:23;15.77;;;12.67;;
29958;SDS011;16815;51.100;6.516;2023-04-09T08:06:50;14.97;;;12.37;;
29958;SDS011;16815;51.100;6.516;2023-04-09T08:09:17;15.70;;;12.70;;
29958;SDS011;16815;51.100;6.516;2023-04-09T08:11:44;15.93;;;12.87;;
29958;SDS011;16815;51.100;6.516;2023-04-09T08:14:12;17.80;;;12.87;;
29958;SDS011;16815;51.100;6.516;2023-04-09T08:16:39;17.40;;;12.57;;
29958;SDS011;16815;51.100;6.516;2023-04-09T08:19:06;17.13;;;13.73;;
29958;SDS011;16815;51.100;6.516;2023-04-09T08:21:32;17.27;;;12.50;;
29958;SDS011;16815;51.100;6.516;2023-04-09T08:23:58;16.23;;;13.20;;
29958;SDS011;16815;51.100;6.516;2023-04-09T08:26:29;17.07;;;12.70;;
29958;SDS011;16815;51.100;6.516;2023-04-09T08:28:55;15.50;;;12.70;;
29958;SDS011;16815;51.100;6.516;2023-04-09T08:31:21;16.07;;;13.73;;
29958;SDS011;16815;51.100;6.516;2023-04-09T08:33:47;16.47;;;12.53;;
29958;SDS011;16815;51.100;6.516;2023-04-09T08:36:13;14.63;;;12.43;;
29958;SDS011;16815;51.100;6.516;2023-04-09T08:38:39;15.90;;;13.47;;
29958;SDS011;16815;51.100;6.516;2023-04-09T08:41:06;14.17;;;12.13;;
29958;SDS011;16815;51.100;6.516;2023-04-09T08:43:32;15.33;;;12.70;;
29958;SDS011;16815;51.100;6.516;2023-04-09T08:45:58;14.67;;;12.57;;
29958;SDS011;16815;51.100;6.516;2023-04-09T08:48:24;16.40;;;13.53;;
29958;SDS011;16815;51.100;6.516;2023-04-09T08:50:50;15.53;;;12.97;;
29958;SDS011;16815;51.100;6.516;2023-04-09T08:53:16;16.00;;;13.27;;
29958;SDS011;16815;51.100;6.516;2023-04-09T08:55:46;14.70;;;12.23;;
29958;SDS011;16815;51.100;6.516;2023-04-09T08:58:12;16.53;;;13.40;;
29958;SDS011;16815;51.100;6.516;2023-04-09T09:00:38;16.70;;;13.30;;
29958;SDS011;16815;51.100;6.516;2023-04-09T09:03:10;16.03;;;12.53;;
29958;SDS011;16815;51.100;6.516;2023-04-09T09:05:43;16.30;;;13.60;;
29958;SDS011;16815;51.100;6.516;2023-04-09T09:08:11;13.67;;;12.17;;
29958;SDS011;16815;51.100;6.516;2023-04-09T09:10:37;16.13;;;11.93;;
29958;SDS011;16815;51.100;6.516;2023-04-09T09:13:23;14.63;;;12.10;;
29958;SDS011;16815;51.100;6.516;2023-04-09T09:15:50;14.33;;;11.50;;
29958;SDS011;16815;51.100;6.516;2023-04-09T09:18:42;12.33;;;11.00;;
29958;SDS011;16815;51.100;6.516;2023-04-09T09:21:09;12.93;;;10.50;;
29958;SDS011;16815;51.100;6.516;2023-04-09T09:23:35;12.37;;;10.17;;
29958;SDS011;16815;51.100;6.516;2023-04-09T09:26:09;10.33;;;9.07;;
29958;SDS011;16815;51.100;6.516;2023-04-09T09:28:36;11.77;;;8.90;;
29958;SDS011;16815;51.100;6.516;2023-04-09T09:31:08;9.80;;;8.80;;
29958;SDS011;16815;51.100;6.516;2023-04-09T09:33:34;13.17;;;9.53;;
29958;SDS011;16815;51.100;6.516;2023-04-09T09:36:01;10.97;;;9.23;;
29958;SDS011;16815;51.100;6.516;2023-04-09T09:38:30;9.40;;;8.40;;
29958;SDS011;16815;51.100;6.516;2023-04-09T09:40:56;11.17;;;9.27;;
29958;SDS011;16815;51.100;6.516;2023-04-09T09:43:22;10.70;;;8.43;;
29958;SDS011;16815;51.100;6.516;2023-04-09T09:45:48;8.67;;;7.77;;
29958;SDS011;16815;51.100;6.516;2023-04-09T09:48:14;10.47;;;9.37;;
29958;SDS011;16815;51.100;6.516;2023-04-09T09:50:41;10.27;;;8.40;;
29958;SDS011;16815;51.100;6.516;2023-04-09T09:53:08;9.40;;;7.90;;
29958;SDS011;16815;51.100;6.516;2023-04-09T09:55:39;9.13;;;7.47;;
29958;SDS011;16815;51.100;6.516;2023-04-09T09:58:08;9.80;;;8.43;;
29958;SDS011;16815;51.100;6.516;2023-04-09T10:00:37;9.67;;;8.20;;
29958;SDS011;16815;51.100;6.516;2023-04-09T10:03:13;10.30;;;8.27;;
29958;SDS011;16815;51.100;6.516;2023-04-09T10:05:40;8.17;;;7.37;;
29958;SDS011;16815;51.100;6.516;2023-04-09T10:08:07;7.47;;;6.67;;
29958;SDS011;16815;51.100;6.516;2023-04-09T10:10:33;7.37;;;6.67;;
29958;SDS011;16815;51.100;6.516;2023-04-09T10:12:59;8.80;;;7.27;;
29958;SDS011;16815;51.100;6.516;2023-04-09T10:15:28;9.37;;;7.07;;
29958;SDS011;16815;51.100;6.516;2023-04-09T10:17:55;7.07;;;6.30;;
29958;SDS011;16815;51.100;6.516;2023-04-09T10:20:26;7.20;;;6.50;;
29958;SDS011;16815;51.100;6.516;2023-04-09T10:22:53;8.13;;;6.67;;
29958;SDS011;16815;51.100;6.516;2023-04-09T10:25:20;8.83;;;6.33;;
29958;SDS011;16815;51.100;6.516;2023-04-09T10:27:57;8.30;;;6.67;;
29958;SDS011;16815;51.100;6.516;2023-04-09T10:30:30;8.17;;;6.47;;
29958;SDS011;16815;51.100;6.516;2023-04-09T10:33:07;6.70;;;5.97;;
29958;SDS011;16815;51.100;6.516;2023-04-09T10:35:33;7.50;;;6.33;;
29958;SDS011;16815;51.100;6.516;2023-04-09T10:37:59;7.00;;;6.30;;
29958;SDS011;16815;51.100;6.516;2023-04-09T10:40:26;6.67;;;5.93;;
29958;SDS011;16815;51.100;6.516;2023-04-09T10:42:53;8.70;;;6.20;;
29958;SDS011;16815;51.100;6.516;2023-04-09T10:45:19;6.33;;;5.73;;
29958;SDS011;16815;51.100;6.516;2023-04-09T10:47:48;6.97;;;6.27;;
29958;SDS011;16815;51.100;6.516;2023-04-09T10:50:20;6.17;;;5.57;;
29958;SDS011;16815;51.100;6.516;2023-04-09T10:52:50;7.63;;;6.13;;
29958;SDS011;16815;51.100;6.516;2023-04-09T10:58:02;7.47;;;5.93;;
29958;SDS011;16815;51.100;6.516;2023-04-09T11:00:28;7.33;;;6.57;;
29958;SDS011;16815;51.100;6.516;2023-04-09T11:05:31;8.80;;;6.67;;
29958;SDS011;16815;51.100;6.516;2023-04-09T11:10:30;6.47;;;5.83;;
29958;SDS011;16815;51.100;6.516;2023-04-09T11:12:56;6.93;;;6.23;;
29958;SDS011;16815;51.100;6.516;2023-04-09T11:15:22;7.27;;;5.90;;
29958;SDS011;16815;51.100;6.516;2023-04-09T11:17:48;6.70;;;5.73;;
29958;SDS011;16815;51.100;6.516;2023-04-09T11:20:15;7.00;;;5.83;;
29958;SDS011;16815;51.100;6.516;2023-04-09T11:22:41;6.43;;;5.50;;
29958;SDS011;16815;51.100;6.516;2023-04-09T11:25:07;6.57;;;5.87;;
29958;SDS011;16815;51.100;6.516;2023-04-09T11:27:37;7.03;;;6.33;;
29958;SDS011;16815;51.100;6.516;2023-04-09T11:30:03;6.03;;;5.33;;
29958;SDS011;16815;51.100;6.516;2023-04-09T11:32:30;6.53;;;5.57;;
29958;SDS011;16815;51.100;6.516;2023-04-09T11:34:56;6.13;;;5.53;;
29958;SDS011;16815;51.100;6.516;2023-04-09T11:37:22;7.73;;;5.20;;
29958;SDS011;16815;51.100;6.516;2023-04-09T11:39:48;6.40;;;5.80;;
29958;SDS011;16815;51.100;6.516;2023-04-09T11:42:19;7.83;;;6.17;;
29958;SDS011;16815;51.100;6.516;2023-04-09T11:44:46;7.50;;;5.90;;
29958;SDS011;16815;51.100;6.516;2023-04-09T11:47:12;6.23;;;5.60;;
29958;SDS011;16815;51.100;6.516;2023-04-09T11:49:38;6.37;;;5.77;;
29958;SDS011;16815;51.100;6.516;2023-04-09T11:52:05;6.37;;;5.53;;
29958;SDS011;16815;51.100;6.516;2023-04-09T11:54:34;6.73;;;5.87;;
29958;SDS011;16815;51.100;6.516;2023-04-09T11:57:02;6.43;;;5.63;;
29958;SDS011;16815;51.100;6.516;2023-04-09T11:59:28;9.10;;;6.27;;
29958;SDS011;16815;51.100;6.516;2023-04-09T12:01:56;8.13;;;6.77;;
29958;SDS011;16815;51.100;6.516;2023-04-09T12:04:22;8.13;;;6.50;;
29958;SDS011;16815;51.100;6.516;2023-04-09T12:06:48;6.07;;;5.47;;
29958;SDS011;16815;51.100;6.516;2023-04-09T12:09:14;7.27;;;6.33;;
29958;SDS011;16815;51.100;6.516;2023-04-09T12:11:43;6.70;;;6.00;;
29958;SDS011;16815;51.100;6.516;2023-04-09T12:14:13;7.37;;;6.53;;
29958;SDS011;16815;51.100;6.516;2023-04-09T12:16:40;7.47;;;6.67;;
29958;SDS011;16815;51.100;6.516;2023-04-09T12:19:08;10.80;;;6.80;;
29958;SDS011;16815;51.100;6.516;2023-04-09T12:21:51;6.40;;;5.80;;
29958;SDS011;16815;51.100;6.516;2023-04-09T12:24:19;6.43;;;5.67;;
29958;SDS011;16815;51.100;6.516;2023-04-09T12:26:46;6.23;;;5.63;;
29958;SDS011;16815;51.100;6.516;2023-04-09T12:29:13;7.73;;;6.03;;
29958;SDS011;16815;51.100;6.516;2023-04-09T12:31:38;6.80;;;6.10;;
29958;SDS011;16815;51.100;6.516;2023-04-09T12:34:04;6.60;;;5.87;;
29958;SDS011;16815;51.100;6.516;2023-04-09T12:36:30;6.13;;;5.53;;
29958;SDS011;16815;51.100;6.516;2023-04-09T12:38:56;6.63;;;5.53;;
29958;SDS011;16815;51.100;6.516;2023-04-09T12:41:22;5.87;;;5.23;;
29958;SDS011;16815;51.100;6.516;2023-04-09T12:43:48;6.60;;;5.67;;
29958;SDS011;16815;51.100;6.516;2023-04-09T12:46:16;6.27;;;5.67;;
29958;SDS011;16815;51.100;6.516;2023-04-09T12:48:43;6.80;;;5.97;;
29958;SDS011;16815;51.100;6.516;2023-04-09T12:51:09;5.77;;;5.13;;
29958;SDS011;16815;51.100;6.516;2023-04-09T12:53:35;6.37;;;5.77;;
29958;SDS011;16815;51.100;6.516;2023-04-09T12:56:01;6.30;;;5.70;;
29958;SDS011;16815;51.100;6.516;2023-04-09T12:58:27;6.10;;;5.50;;
29958;SDS011;16815;51.100;6.516;2023-04-09T13:00:53;8.10;;;5.97;;
29958;SDS011;16815;51.100;6.516;2023-04-09T13:03:21;6.40;;;5.77;;
29958;SDS011;16815;51.100;6.516;2023-04-09T13:05:47;6.97;;;6.27;;
29958;SDS011;16815;51.100;6.516;2023-04-09T13:08:13;7.47;;;6.47;;
29958;SDS011;16815;51.100;6.516;2023-04-09T13:10:40;6.77;;;5.70;;
29958;SDS011;16815;51.100;6.516;2023-04-09T13:13:06;6.37;;;5.60;;
29958;SDS011;16815;51.100;6.516;2023-04-09T13:15:36;6.60;;;6.00;;
29958;SDS011;16815;51.100;6.516;2023-04-09T13:18:02;7.60;;;6.33;;
29958;SDS011;16815;51.100;6.516;2023-04-09T13:20:28;6.30;;;5.70;;
29958;SDS011;16815;51.100;6.516;2023-04-09T13:22:54;7.57;;;5.93;;
29958;SDS011;16815;51.100;6.516;2023-04-09T13:25:20;7.47;;;6.00;;
29958;SDS011;16815;51.100;6.516;2023-04-09T13:27:46;6.73;;;6.00;;
29958;SDS011;16815;51.100;6.516;2023-04-09T13:30:12;6.67;;;5.93;;
29958;SDS011;16815;51.100;6.516;2023-04-09T13:32:38;5.57;;;5.00;;
29958;SDS011;16815;51.100;6.516;2023-04-09T13:35:05;7.53;;;5.70;;
29958;SDS011;16815;51.100;6.516;2023-04-09T13:37:31;7.50;;;6.03;;
29958;SDS011;16815;51.100;6.516;2023-04-09T13:39:57;6.53;;;5.73;;
29958;SDS011;16815;51.100;6.516;2023-04-09T13:42:23;6.10;;;5.37;;
29958;SDS011;16815;51.100;6.516;2023-04-09T13:44:49;5.80;;;5.20;;
29958;SDS011;16815;51.100;6.516;2023-04-09T13:47:15;6.50;;;5.67;;
29958;SDS011;16815;51.100;6.516;2023-04-09T13:49:42;6.13;;;5.53;;
29958;SDS011;16815;51.100;6.516;2023-04-09T13:52:08;7.00;;;6.30;;
29958;SDS011;16815;51.100;6.516;2023-04-09T13:54:35;6.63;;;6.03;;
29958;SDS011;16815;51.100;6.516;2023-04-09T13:57:01;6.37;;;5.77;;
29958;SDS011;16815;51.100;6.516;2023-04-09T13:59:27;6.87;;;6.07;;
29958;SDS011;16815;51.100;6.516;2023-04-09T14:01:53;7.00;;;6.30;;
29958;SDS011;16815;51.100;6.516;2023-04-09T14:04:19;6.50;;;5.90;;
29958;SDS011;16815;51.100;6.516;2023-04-09T14:06:46;6.10;;;5.50;;
29958;SDS011;16815;51.100;6.516;2023-04-09T14:09:13;11.87;;;6.00;;
29958;SDS011;16815;51.100;6.516;2023-04-09T14:11:39;5.53;;;5.03;;
29958;SDS011;16815;51.100;6.516;2023-04-09T14:14:05;5.87;;;5.27;;
29958;SDS011;16815;51.100;6.516;2023-04-09T14:16:31;6.30;;;5.13;;
29958;SDS011;16815;51.100;6.516;2023-04-09T14:18:57;6.70;;;6.00;;
29958;SDS011;16815;51.100;6.516;2023-04-09T14:21:23;7.20;;;6.50;;
29958;SDS011;16815;51.100;6.516;2023-04-09T14:23:50;6.90;;;6.20;;
29958;SDS011;16815;51.100;6.516;2023-04-09T14:26:16;9.20;;;6.07;;
29958;SDS011;16815;51.100;6.516;2023-04-09T14:28:43;6.63;;;6.03;;
29958;SDS011;16815;51.100;6.516;2023-04-09T14:31:11;6.80;;;5.80;;
29958;SDS011;16815;51.100;6.516;2023-04-09T14:33:38;6.33;;;5.73;;
29958;SDS011;16815;51.100;6.516;2023-04-09T14:36:04;6.60;;;6.00;;
29958;SDS011;16815;51.100;6.516;2023-04-09T14:38:30;6.00;;;5.40;;
29958;SDS011;16815;51.100;6.516;2023-04-09T14:40:55;6.77;;;6.00;;